PWSweather.com
Personal Weather Stations
Station Observations
4BILLL
The Overlook At The Hills Of Texas, Austin, TX 78737

The Overlook At The Hills Of TexasAustin, TX 78737

Lat: 30.179, Lon: -97.958

Elevation: 1130

Station Type: Davis Vantage Pro II

Latest ConditionsUpdated 10:09:49 PM CST Friday, Feb 23, 2018
Currently Today's Max Today's Min Today's Average
Temperature 61.2°F16.2°C 61.4°F16.3°C 41.5°F5.3°C 51.4°F10.8°C
Dew Point 60.9°F16.1°C 61.1°F16.2°C 41.0°F5.0°C 51.0°F10.6°C
Winds Calm Calm 3.0 mph SE4.8 kmh SE - 0.1 mph 0.2 kmh
Wind Gusts -- 10.0 mph16.1 kmh - -
Humidity 99% 99% 98% 99%
Pressure 30.02 in1016.6 mb 30.27 in1025.1 mb 30.02 in1016.6 mb -
Precipitation - 0.23 in5.8 mm - -
Hour Temp Dew Point Humidity Winds Wind Gusts Pressure Precip Precip Rate Daily Precip Total
10:09 PM 61.2°F16.2°C 60.9°F16.1°C 99% Calm Calm -- 30.02 in1016.6 mb 0.00 in0.0 mm 0.00 in0.0 mm 0.23 in5.8 mm
10:04 PM 61.2°F16.2°C 60.9°F16.1°C 99% Calm Calm -- 30.02 in1016.6 mb 0.00 in0.0 mm 0.00 in0.0 mm 0.23 in5.8 mm
09:59 PM 61.2°F16.2°C 60.9°F16.1°C 99% Calm Calm -- 30.02 in1016.6 mb 0.00 in0.0 mm 0.00 in0.0 mm 0.23 in5.8 mm
09:54 PM 61.3°F16.3°C 61.0°F16.1°C 99% Calm Calm -- 30.02 in1016.6 mb 0.00 in0.0 mm 0.00 in0.0 mm 0.23 in5.8 mm
09:49 PM 61.3°F16.3°C 61.0°F16.1°C 99% Calm Calm -- 30.02 in1016.6 mb 0.00 in0.0 mm 0.00 in0.0 mm 0.23 in5.8 mm
09:44 PM 61.4°F16.3°C 61.1°F16.2°C 99% Calm Calm -- 30.02 in1016.6 mb 0.00 in0.0 mm 0.00 in0.0 mm 0.23 in5.8 mm
09:39 PM 61.4°F16.3°C 61.1°F16.2°C 99% Calm Calm -- 30.02 in1016.6 mb 0.00 in0.0 mm 0.00 in0.0 mm 0.23 in5.8 mm
09:34 PM 61.4°F16.3°C 61.1°F16.2°C 99% Calm Calm -- 30.02 in1016.6 mb 0.00 in0.0 mm 0.00 in0.0 mm 0.23 in5.8 mm
09:29 PM 61.3°F16.3°C 61.0°F16.1°C 99% Calm Calm -- 30.02 in1016.6 mb 0.00 in0.0 mm 0.00 in0.0 mm 0.23 in5.8 mm
09:24 PM 61.3°F16.3°C 61.0°F16.1°C 99% Calm Calm -- 30.03 in1016.9 mb 0.00 in0.0 mm 0.00 in0.0 mm 0.23 in5.8 mm
09:19 PM 61.4°F16.3°C 61.1°F16.2°C 99% Calm Calm -- 30.02 in1016.6 mb 0.00 in0.0 mm 0.00 in0.0 mm 0.23 in5.8 mm
09:14 PM 61.4°F16.3°C 61.1°F16.2°C 99% Calm Calm -- 30.03 in1016.9 mb 0.00 in0.0 mm 0.00 in0.0 mm 0.23 in5.8 mm
09:09 PM 61.3°F16.3°C 61.0°F16.1°C 99% Calm Calm -- 30.03 in1016.9 mb 0.00 in0.0 mm 0.00 in0.0 mm 0.23 in5.8 mm
09:04 PM 61.3°F16.3°C 61.0°F16.1°C 99% Calm Calm -- 30.03 in1016.9 mb 0.00 in0.0 mm 0.00 in0.0 mm 0.23 in5.8 mm
08:59 PM 61.4°F16.3°C 61.1°F16.2°C 99% Calm Calm -- 30.03 in1016.9 mb 0.00 in0.0 mm 0.00 in0.0 mm 0.23 in5.8 mm
08:54 PM 61.4°F16.3°C 61.1°F16.2°C 99% Calm Calm -- 30.03 in1016.9 mb 0.00 in0.0 mm 0.00 in0.0 mm 0.23 in5.8 mm
08:49 PM 61.3°F16.3°C 61.0°F16.1°C 99% Calm Calm -- 30.03 in1016.9 mb 0.00 in0.0 mm 0.00 in0.0 mm 0.23 in5.8 mm
08:44 PM 61.1°F16.2°C 60.8°F16.0°C 99% Calm Calm -- 30.03 in1016.9 mb 0.00 in0.0 mm 0.00 in0.0 mm 0.23 in5.8 mm
08:39 PM 61.1°F16.2°C 60.8°F16.0°C 99% Calm Calm -- 30.03 in1016.9 mb 0.00 in0.0 mm 0.00 in0.0 mm 0.23 in5.8 mm
08:34 PM 61.0°F16.1°C 60.7°F15.9°C 99% Calm Calm -- 30.03 in1016.9 mb 0.00 in0.0 mm 0.00 in0.0 mm 0.23 in5.8 mm
08:29 PM 60.9°F16.1°C 60.6°F15.9°C 99% Calm Calm -- 30.02 in1016.6 mb 0.00 in0.0 mm 0.00 in0.0 mm 0.23 in5.8 mm
08:24 PM 61.0°F16.1°C 60.7°F15.9°C 99% Calm Calm -- 30.02 in1016.6 mb 0.00 in0.0 mm 0.00 in0.0 mm 0.23 in5.8 mm
08:19 PM 61.0°F16.1°C 60.7°F15.9°C 99% Calm Calm -- 30.02 in1016.6 mb 0.00 in0.0 mm 0.00 in0.0 mm 0.23 in5.8 mm
08:14 PM 61.1°F16.2°C 60.8°F16.0°C 99% Calm Calm -- 30.02 in1016.6 mb 0.00 in0.0 mm 0.00 in0.0 mm 0.23 in5.8 mm
08:09 PM 61.1°F16.2°C 60.8°F16.0°C 99% Calm Calm -- 30.02 in1016.6 mb 0.00 in0.0 mm 0.00 in0.0 mm 0.23 in5.8 mm
08:04 PM 61.1°F16.2°C 60.8°F16.0°C 99% Calm Calm -- 30.02 in1016.6 mb 0.00 in0.0 mm 0.00 in0.0 mm 0.23 in5.8 mm
07:59 PM 60.9°F16.1°C 60.6°F15.9°C 99% Calm Calm -- 30.03 in1016.9 mb 0.00 in0.0 mm 0.00 in0.0 mm 0.23 in5.8 mm
07:54 PM 60.9°F16.1°C 60.6°F15.9°C 99% Calm Calm -- 30.03 in1016.9 mb 0.00 in0.0 mm 0.00 in0.0 mm 0.23 in5.8 mm
07:49 PM 60.9°F16.1°C 60.6°F15.9°C 99% Calm Calm -- 30.02 in1016.6 mb 0.00 in0.0 mm 0.00 in0.0 mm 0.23 in5.8 mm
07:44 PM 61.1°F16.2°C 60.8°F16.0°C 99% Calm Calm -- 30.02 in1016.6 mb 0.00 in0.0 mm 0.00 in0.0 mm 0.23 in5.8 mm
07:39 PM 61.3°F16.3°C 61.0°F16.1°C 99% Calm Calm -- 30.02 in1016.6 mb 0.00 in0.0 mm 0.00 in0.0 mm 0.23 in5.8 mm
07:34 PM 61.3°F16.3°C 61.0°F16.1°C 99% Calm Calm -- 30.02 in1016.6 mb 0.00 in0.0 mm 0.00 in0.0 mm 0.23 in5.8 mm
07:29 PM 61.3°F16.3°C 61.0°F16.1°C 99% Calm Calm -- 30.02 in1016.6 mb 0.00 in0.0 mm 0.00 in0.0 mm 0.23 in5.8 mm
07:24 PM 61.3°F16.3°C 61.0°F16.1°C 99% Calm Calm -- 30.02 in1016.6 mb 0.00 in0.0 mm 0.00 in0.0 mm 0.23 in5.8 mm
07:19 PM 61.2°F16.2°C 60.9°F16.1°C 99% Calm Calm -- 30.02 in1016.6 mb 0.00 in0.0 mm 0.00 in0.0 mm 0.23 in5.8 mm
07:14 PM 61.2°F16.2°C 60.9°F16.1°C 99% Calm Calm -- 30.02 in1016.6 mb 0.00 in0.0 mm 0.00 in0.0 mm 0.23 in5.8 mm
07:09 PM 61.1°F16.2°C 60.8°F16.0°C 99% Calm Calm -- 30.02 in1016.6 mb 0.00 in0.0 mm 0.00 in0.0 mm 0.23 in5.8 mm
07:04 PM 60.8°F16.0°C 60.5°F15.8°C 99% Calm Calm -- 30.02 in1016.6 mb 0.00 in0.0 mm 0.00 in0.0 mm 0.23 in5.8 mm
06:59 PM 60.5°F15.8°C 60.2°F15.7°C 99% Calm Calm -- 30.02 in1016.6 mb 0.00 in0.0 mm 0.00 in0.0 mm 0.23 in5.8 mm
06:54 PM 60.2°F15.7°C 59.9°F15.5°C 99% Calm Calm -- 30.02 in1016.6 mb 0.00 in0.0 mm 0.00 in0.0 mm 0.23 in5.8 mm
06:49 PM 60.2°F15.7°C 59.9°F15.5°C 99% Calm Calm -- 30.02 in1016.6 mb 0.00 in0.0 mm 0.00 in0.0 mm 0.23 in5.8 mm
06:44 PM 60.3°F15.7°C 60.0°F15.6°C 99% Calm Calm -- 30.02 in1016.6 mb 0.00 in0.0 mm 0.00 in0.0 mm 0.23 in5.8 mm
06:39 PM 60.2°F15.7°C 59.9°F15.5°C 99% Calm Calm -- 30.02 in1016.6 mb 0.00 in0.0 mm 0.00 in0.0 mm 0.23 in5.8 mm
06:34 PM 60.2°F15.7°C 59.9°F15.5°C 99% Calm Calm -- 30.02 in1016.6 mb 0.00 in0.0 mm 0.00 in0.0 mm 0.23 in5.8 mm
06:29 PM 60.2°F15.7°C 59.9°F15.5°C 99% Calm Calm -- 30.02 in1016.6 mb 0.00 in0.0 mm 0.00 in0.0 mm 0.23 in5.8 mm
06:24 PM 60.2°F15.7°C 59.9°F15.5°C 99% Calm Calm -- 30.02 in1016.6 mb 0.00 in0.0 mm 0.00 in0.0 mm 0.23 in5.8 mm
06:19 PM 60.2°F15.7°C 59.9°F15.5°C 99% Calm Calm -- 30.02 in1016.6 mb 0.00 in0.0 mm 0.00 in0.0 mm 0.23 in5.8 mm
06:14 PM 60.2°F15.7°C 59.9°F15.5°C 99% Calm Calm -- 30.02 in1016.6 mb 0.00 in0.0 mm 0.00 in0.0 mm 0.23 in5.8 mm
06:09 PM 60.2°F15.7°C 59.9°F15.5°C 99% Calm Calm -- 30.02 in1016.6 mb 0.00 in0.0 mm 0.00 in0.0 mm 0.23 in5.8 mm
06:04 PM 60.2°F15.7°C 59.9°F15.5°C 99% Calm Calm -- 30.02 in1016.6 mb 0.00 in0.0 mm 0.00 in0.0 mm 0.23 in5.8 mm
05:59 PM 60.2°F15.7°C 59.9°F15.5°C 99% Calm Calm -- 30.03 in1016.9 mb 0.00 in0.0 mm 0.00 in0.0 mm 0.23 in5.8 mm
05:54 PM 60.2°F15.7°C 59.9°F15.5°C 99% Calm Calm -- 30.03 in1016.9 mb 0.00 in0.0 mm 0.00 in0.0 mm 0.23 in5.8 mm
05:49 PM 60.2°F15.7°C 59.9°F15.5°C 99% Calm Calm -- 30.02 in1016.6 mb 0.00 in0.0 mm 0.00 in0.0 mm 0.23 in5.8 mm
05:44 PM 60.2°F15.7°C 59.9°F15.5°C 99% Calm Calm -- 30.02 in1016.6 mb 0.00 in0.0 mm 0.00 in0.0 mm 0.23 in5.8 mm
05:39 PM 60.1°F15.6°C 59.8°F15.4°C 99% Calm Calm -- 30.02 in1016.6 mb 0.00 in0.0 mm 0.00 in0.0 mm 0.23 in5.8 mm
05:34 PM 60.1°F15.6°C 59.8°F15.4°C 99% Calm Calm -- 30.02 in1016.6 mb 0.00 in0.0 mm 0.00 in0.0 mm 0.23 in5.8 mm
05:29 PM 60.1°F15.6°C 59.8°F15.4°C 99% Calm Calm -- 30.02 in1016.6 mb 0.00 in0.0 mm 0.00 in0.0 mm 0.23 in5.8 mm
05:24 PM 60.0°F15.6°C 59.7°F15.4°C 99% Calm Calm -- 30.02 in1016.6 mb 0.00 in0.0 mm 0.00 in0.0 mm 0.23 in5.8 mm
05:19 PM 60.0°F15.6°C 59.7°F15.4°C 99% Calm Calm -- 30.02 in1016.6 mb 0.00 in0.0 mm 0.00 in0.0 mm 0.23 in5.8 mm
05:14 PM 60.0°F15.6°C 59.7°F15.4°C 99% Calm Calm -- 30.02 in1016.6 mb 0.00 in0.0 mm 0.00 in0.0 mm 0.23 in5.8 mm
05:09 PM 60.0°F15.6°C 59.7°F15.4°C 99% Calm Calm -- 30.03 in1016.9 mb 0.00 in0.0 mm 0.00 in0.0 mm 0.23 in5.8 mm
05:04 PM 59.9°F15.5°C 59.6°F15.3°C 99% Calm Calm -- 30.03 in1016.9 mb 0.00 in0.0 mm 0.00 in0.0 mm 0.23 in5.8 mm
04:59 PM 59.8°F15.4°C 59.5°F15.3°C 99% Calm Calm -- 30.03 in1016.9 mb 0.00 in0.0 mm 0.00 in0.0 mm 0.23 in5.8 mm
04:54 PM 59.9°F15.5°C 59.6°F15.3°C 99% Calm Calm -- 30.03 in1016.9 mb 0.00 in0.0 mm 0.00 in0.0 mm 0.23 in5.8 mm
04:49 PM 59.6°F15.3°C 59.3°F15.2°C 99% Calm Calm -- 30.03 in1016.9 mb 0.00 in0.0 mm 0.00 in0.0 mm 0.23 in5.8 mm
04:44 PM 59.4°F15.2°C 59.1°F15.1°C 99% Calm Calm -- 30.04 in1017.3 mb 0.00 in0.0 mm 0.00 in0.0 mm 0.23 in5.8 mm
04:39 PM 59.3°F15.2°C 59.0°F15.0°C 99% Calm Calm -- 30.04 in1017.3 mb 0.00 in0.0 mm 0.00 in0.0 mm 0.23 in5.8 mm
04:34 PM 59.1°F15.1°C 58.8°F14.9°C 99% Calm Calm -- 30.03 in1016.9 mb 0.00 in0.0 mm 0.00 in0.0 mm 0.23 in5.8 mm
04:29 PM 58.9°F14.9°C 58.6°F14.8°C 99% Calm Calm -- 30.04 in1017.3 mb 0.00 in0.0 mm 0.00 in0.0 mm 0.23 in5.8 mm
04:24 PM 58.7°F14.8°C 58.4°F14.7°C 99% Calm Calm -- 30.04 in1017.3 mb 0.00 in0.0 mm 0.00 in0.0 mm 0.23 in5.8 mm
04:19 PM 58.2°F14.6°C 57.9°F14.4°C 99% Calm Calm -- 30.04 in1017.3 mb 0.00 in0.0 mm 0.00 in0.0 mm 0.23 in5.8 mm
04:14 PM 57.9°F14.4°C 57.6°F14.2°C 99% Calm Calm -- 30.04 in1017.3 mb 0.00 in0.0 mm 0.00 in0.0 mm 0.23 in5.8 mm
04:09 PM 57.7°F14.3°C 57.4°F14.1°C 99% Calm Calm -- 30.04 in1017.3 mb 0.00 in0.0 mm 0.00 in0.0 mm 0.23 in5.8 mm
04:04 PM 57.5°F14.2°C 57.2°F14.0°C 99% Calm Calm -- 30.04 in1017.3 mb 0.00 in0.0 mm 0.00 in0.0 mm 0.23 in5.8 mm
03:59 PM 57.3°F14.1°C 57.0°F13.9°C 99% Calm Calm -- 30.04 in1017.3 mb 0.00 in0.0 mm 0.00 in0.0 mm 0.23 in5.8 mm
03:54 PM 57.2°F14.0°C 56.9°F13.8°C 99% Calm Calm -- 30.05 in1017.6 mb 0.00 in0.0 mm 0.00 in0.0 mm 0.23 in5.8 mm
03:49 PM 57.1°F13.9°C 56.8°F13.8°C 99% Calm Calm -- 30.05 in1017.6 mb 0.00 in0.0 mm 0.00 in0.0 mm 0.23 in5.8 mm
03:44 PM 56.9°F13.8°C 56.6°F13.7°C 99% Calm Calm -- 30.05 in1017.6 mb 0.00 in0.0 mm 0.00 in0.0 mm 0.23 in5.8 mm
03:39 PM 56.6°F13.7°C 56.3°F13.5°C 99% Calm Calm -- 30.06 in1017.9 mb 0.00 in0.0 mm 0.00 in0.0 mm 0.23 in5.8 mm
03:34 PM 56.5°F13.6°C 56.2°F13.4°C 99% Calm Calm -- 30.05 in1017.6 mb 0.00 in0.0 mm 0.00 in0.0 mm 0.23 in5.8 mm
03:29 PM 56.4°F13.6°C 56.1°F13.4°C 99% Calm Calm -- 30.05 in1017.6 mb 0.00 in0.0 mm 0.00 in0.0 mm 0.23 in5.8 mm
03:24 PM 56.2°F13.4°C 55.9°F13.3°C 99% Calm Calm -- 30.06 in1017.9 mb 0.00 in0.0 mm 0.00 in0.0 mm 0.23 in5.8 mm
03:19 PM 56.0°F13.3°C 55.7°F13.2°C 99% Calm Calm -- 30.07 in1018.3 mb 0.00 in0.0 mm 0.00 in0.0 mm 0.23 in5.8 mm
03:14 PM 56.0°F13.3°C 55.7°F13.2°C 99% Calm Calm -- 30.07 in1018.3 mb 0.00 in0.0 mm 0.00 in0.0 mm 0.23 in5.8 mm
03:09 PM 56.0°F13.3°C 55.7°F13.2°C 99% Calm Calm -- 30.07 in1018.3 mb 0.00 in0.0 mm 0.00 in0.0 mm 0.23 in5.8 mm
03:04 PM 56.0°F13.3°C 55.7°F13.2°C 99% Calm Calm -- 30.07 in1018.3 mb 0.00 in0.0 mm 0.00 in0.0 mm 0.23 in5.8 mm
02:59 PM 56.0°F13.3°C 55.7°F13.2°C 99% Calm Calm -- 30.07 in1018.3 mb 0.00 in0.0 mm 0.00 in0.0 mm 0.23 in5.8 mm
02:54 PM 55.9°F13.3°C 55.6°F13.1°C 99% Calm Calm -- 30.07 in1018.3 mb 0.00 in0.0 mm 0.00 in0.0 mm 0.23 in5.8 mm
02:49 PM 55.7°F13.2°C 55.4°F13.0°C 99% Calm Calm -- 30.07 in1018.3 mb 0.00 in0.0 mm 0.00 in0.0 mm 0.23 in5.8 mm
02:44 PM 55.7°F13.2°C 55.4°F13.0°C 99% Calm Calm -- 30.08 in1018.6 mb 0.00 in0.0 mm 0.00 in0.0 mm 0.23 in5.8 mm
02:39 PM 55.6°F13.1°C 55.3°F12.9°C 99% Calm Calm -- 30.08 in1018.6 mb 0.00 in0.0 mm 0.00 in0.0 mm 0.23 in5.8 mm
02:34 PM 55.5°F13.1°C 55.2°F12.9°C 99% Calm Calm -- 30.08 in1018.6 mb 0.00 in0.0 mm 0.00 in0.0 mm 0.23 in5.8 mm
02:29 PM 55.4°F13.0°C 55.1°F12.8°C 99% Calm Calm -- 30.09 in1019.0 mb 0.00 in0.0 mm 0.00 in0.0 mm 0.23 in5.8 mm
02:24 PM 55.3°F12.9°C 55.0°F12.8°C 99% Calm Calm -- 30.09 in1019.0 mb 0.00 in0.0 mm 0.00 in0.0 mm 0.23 in5.8 mm
02:19 PM 55.3°F12.9°C 55.0°F12.8°C 99% Calm Calm -- 30.10 in1019.3 mb 0.00 in0.0 mm 0.00 in0.0 mm 0.23 in5.8 mm
02:14 PM 55.3°F12.9°C 55.0°F12.8°C 99% Calm Calm -- 30.10 in1019.3 mb 0.00 in0.0 mm 0.00 in0.0 mm 0.23 in5.8 mm
02:09 PM 55.2°F12.9°C 54.9°F12.7°C 99% Calm Calm -- 30.10 in1019.3 mb 0.00 in0.0 mm 0.00 in0.0 mm 0.23 in5.8 mm
02:04 PM 55.2°F12.9°C 54.9°F12.7°C 99% Calm Calm -- 30.10 in1019.3 mb 0.00 in0.0 mm 0.00 in0.0 mm 0.23 in5.8 mm
01:59 PM 55.2°F12.9°C 54.9°F12.7°C 99% Calm Calm -- 30.10 in1019.3 mb 0.00 in0.0 mm 0.00 in0.0 mm 0.23 in5.8 mm
01:54 PM 55.4°F13.0°C 55.1°F12.8°C 99% Calm Calm -- 30.10 in1019.3 mb 0.00 in0.0 mm 0.00 in0.0 mm 0.23 in5.8 mm
01:49 PM 55.4°F13.0°C 55.1°F12.8°C 99% Calm Calm -- 30.10 in1019.3 mb 0.00 in0.0 mm 0.00 in0.0 mm 0.23 in5.8 mm
01:44 PM 55.5°F13.1°C 55.2°F12.9°C 99% Calm Calm -- 30.10 in1019.3 mb 0.00 in0.0 mm 0.00 in0.0 mm 0.23 in5.8 mm
01:39 PM 55.6°F13.1°C 55.3°F12.9°C 99% Calm Calm -- 30.11 in1019.6 mb 0.00 in0.0 mm 0.00 in0.0 mm 0.23 in5.8 mm
01:34 PM 55.5°F13.1°C 55.2°F12.9°C 99% Calm Calm -- 30.11 in1019.6 mb 0.00 in0.0 mm 0.00 in0.0 mm 0.23 in5.8 mm
01:29 PM 55.5°F13.1°C 55.2°F12.9°C 99% Calm Calm -- 30.12 in1020.0 mb 0.00 in0.0 mm 0.00 in0.0 mm 0.23 in5.8 mm
01:24 PM 55.3°F12.9°C 55.0°F12.8°C 99% Calm Calm -- 30.12 in1020.0 mb 0.00 in0.0 mm 0.00 in0.0 mm 0.23 in5.8 mm
01:19 PM 55.1°F12.8°C 54.8°F12.7°C 99% Calm Calm -- 30.12 in1020.0 mb 0.00 in0.0 mm 0.00 in0.0 mm 0.23 in5.8 mm
01:14 PM 55.1°F12.8°C 54.8°F12.7°C 99% Calm Calm -- 30.12 in1020.0 mb 0.00 in0.0 mm 0.00 in0.0 mm 0.23 in5.8 mm
01:09 PM 55.0°F12.8°C 54.7°F12.6°C 99% Calm Calm -- 30.13 in1020.3 mb 0.00 in0.0 mm 0.00 in0.0 mm 0.23 in5.8 mm
01:04 PM 55.1°F12.8°C 54.8°F12.7°C 99% Calm Calm -- 30.13 in1020.3 mb 0.00 in0.0 mm 0.00 in0.0 mm 0.23 in5.8 mm
12:59 PM 54.8°F12.7°C 54.5°F12.5°C 99% Calm Calm -- 30.13 in1020.3 mb 0.00 in0.0 mm 0.00 in0.0 mm 0.23 in5.8 mm
12:54 PM 54.7°F12.6°C 54.4°F12.4°C 99% Calm Calm -- 30.13 in1020.3 mb 0.00 in0.0 mm 0.00 in0.0 mm 0.23 in5.8 mm
12:49 PM 54.4°F12.4°C 54.1°F12.3°C 99% Calm Calm -- 30.14 in1020.7 mb 0.00 in0.0 mm 0.00 in0.0 mm 0.23 in5.8 mm
12:44 PM 54.1°F12.3°C 53.8°F12.1°C 99% Calm Calm -- 30.14 in1020.7 mb 0.00 in0.0 mm 0.00 in0.0 mm 0.23 in5.8 mm
12:39 PM 54.2°F12.3°C 53.9°F12.2°C 99% Calm Calm -- 30.15 in1021.0 mb 0.00 in0.0 mm 0.00 in0.0 mm 0.23 in5.8 mm
12:34 PM 54.2°F12.3°C 53.9°F12.2°C 99% Calm Calm -- 30.15 in1021.0 mb 0.00 in0.0 mm 0.00 in0.0 mm 0.23 in5.8 mm
12:29 PM 54.2°F12.3°C 53.9°F12.2°C 99% Calm Calm -- 30.15 in1021.0 mb 0.00 in0.0 mm 0.00 in0.0 mm 0.23 in5.8 mm
12:24 PM 54.2°F12.3°C 53.9°F12.2°C 99% Calm Calm -- 30.16 in1021.3 mb 0.00 in0.0 mm 0.00 in0.0 mm 0.23 in5.8 mm
12:19 PM 54.1°F12.3°C 53.8°F12.1°C 99% Calm Calm -- 30.16 in1021.3 mb 0.00 in0.0 mm 0.00 in0.0 mm 0.23 in5.8 mm
12:14 PM 54.2°F12.3°C 53.9°F12.2°C 99% Calm Calm -- 30.16 in1021.3 mb 0.00 in0.0 mm 0.00 in0.0 mm 0.23 in5.8 mm
12:09 PM 54.2°F12.3°C 53.9°F12.2°C 99% Calm Calm -- 30.16 in1021.3 mb 0.00 in0.0 mm 0.00 in0.0 mm 0.23 in5.8 mm
12:04 PM 53.8°F12.1°C 53.5°F11.9°C 99% Calm Calm -- 30.17 in1021.7 mb 0.00 in0.0 mm 0.00 in0.0 mm 0.23 in5.8 mm
11:59 AM 53.4°F11.9°C 53.1°F11.7°C 99% Calm Calm -- 30.17 in1021.7 mb 0.00 in0.0 mm 0.00 in0.0 mm 0.23 in5.8 mm
11:54 AM 53.1°F11.7°C 52.8°F11.6°C 99% Calm Calm -- 30.16 in1021.3 mb 0.00 in0.0 mm 0.00 in0.0 mm 0.23 in5.8 mm
11:49 AM 53.0°F11.7°C 52.7°F11.5°C 99% Calm Calm -- 30.17 in1021.7 mb 0.00 in0.0 mm 0.00 in0.0 mm 0.23 in5.8 mm
11:44 AM 52.8°F11.6°C 52.5°F11.4°C 99% Calm Calm -- 30.17 in1021.7 mb 0.00 in0.0 mm 0.00 in0.0 mm 0.23 in5.8 mm
11:39 AM 52.6°F11.4°C 52.3°F11.3°C 99% Calm Calm -- 30.17 in1021.7 mb 0.00 in0.0 mm 0.00 in0.0 mm 0.23 in5.8 mm
11:34 AM 52.5°F11.4°C 52.2°F11.2°C 99% Calm Calm -- 30.18 in1022.0 mb 0.00 in0.0 mm 0.00 in0.0 mm 0.23 in5.8 mm
11:29 AM 52.5°F11.4°C 52.2°F11.2°C 99% Calm Calm -- 30.18 in1022.0 mb 0.00 in0.0 mm 0.00 in0.0 mm 0.23 in5.8 mm
11:24 AM 52.4°F11.3°C 52.1°F11.2°C 99% Calm Calm -- 30.18 in1022.0 mb 0.00 in0.0 mm 0.00 in0.0 mm 0.23 in5.8 mm
11:19 AM 52.3°F11.3°C 52.0°F11.1°C 99% Calm Calm -- 30.18 in1022.0 mb 0.00 in0.0 mm 0.00 in0.0 mm 0.23 in5.8 mm
11:14 AM 52.2°F11.2°C 51.9°F11.1°C 99% Calm Calm -- 30.19 in1022.4 mb 0.00 in0.0 mm 0.00 in0.0 mm 0.23 in5.8 mm
11:09 AM 52.0°F11.1°C 51.7°F10.9°C 99% Calm Calm -- 30.19 in1022.4 mb 0.00 in0.0 mm 0.00 in0.0 mm 0.23 in5.8 mm
11:04 AM 52.0°F11.1°C 51.7°F10.9°C 99% Calm Calm -- 30.19 in1022.4 mb 0.00 in0.0 mm 0.00 in0.0 mm 0.23 in5.8 mm
10:59 AM 51.8°F11.0°C 51.5°F10.8°C 99% Calm Calm -- 30.19 in1022.4 mb 0.00 in0.0 mm 0.00 in0.0 mm 0.23 in5.8 mm
10:54 AM 51.6°F10.9°C 51.3°F10.7°C 99% Calm Calm -- 30.19 in1022.4 mb 0.00 in0.0 mm 0.00 in0.0 mm 0.23 in5.8 mm
10:49 AM 51.5°F10.8°C 51.2°F10.7°C 99% Calm Calm -- 30.20 in1022.7 mb 0.00 in0.0 mm 0.00 in0.0 mm 0.23 in5.8 mm
10:44 AM 51.4°F10.8°C 51.1°F10.6°C 99% Calm Calm -- 30.20 in1022.7 mb 0.00 in0.0 mm 0.00 in0.0 mm 0.23 in5.8 mm
10:39 AM 51.1°F10.6°C 50.8°F10.4°C 99% Calm Calm -- 30.20 in1022.7 mb 0.00 in0.0 mm 0.00 in0.0 mm 0.23 in5.8 mm
10:34 AM 51.0°F10.6°C 50.7°F10.4°C 99% Calm Calm -- 30.20 in1022.7 mb 0.00 in0.0 mm 0.00 in0.0 mm 0.23 in5.8 mm
10:29 AM 50.8°F10.4°C 50.5°F10.3°C 99% Calm Calm -- 30.20 in1022.7 mb 0.00 in0.0 mm 0.00 in0.0 mm 0.23 in5.8 mm
10:24 AM 50.7°F10.4°C 50.4°F10.2°C 99% Calm Calm -- 30.20 in1022.7 mb 0.00 in0.0 mm 0.00 in0.0 mm 0.23 in5.8 mm
10:19 AM 50.6°F10.3°C 50.3°F10.2°C 99% Calm Calm -- 30.20 in1022.7 mb 0.00 in0.0 mm 0.00 in0.0 mm 0.23 in5.8 mm
10:14 AM 50.7°F10.4°C 50.4°F10.2°C 99% Calm Calm -- 30.20 in1022.7 mb 0.00 in0.0 mm 0.00 in0.0 mm 0.23 in5.8 mm
10:09 AM 50.5°F10.3°C 50.2°F10.1°C 99% Calm Calm -- 30.20 in1022.7 mb 0.00 in0.0 mm 0.00 in0.0 mm 0.23 in5.8 mm
10:04 AM 50.2°F10.1°C 49.9°F9.9°C 99% Calm Calm -- 30.20 in1022.7 mb 0.00 in0.0 mm 0.00 in0.0 mm 0.23 in5.8 mm
09:59 AM 50.1°F10.1°C 49.8°F9.9°C 99% Calm Calm -- 30.20 in1022.7 mb 0.00 in0.0 mm 0.00 in0.0 mm 0.23 in5.8 mm
09:54 AM 49.9°F9.9°C 49.6°F9.8°C 99% Calm Calm -- 30.20 in1022.7 mb 0.00 in0.0 mm 0.00 in0.0 mm 0.23 in5.8 mm
09:49 AM 49.6°F9.8°C 49.3°F9.6°C 99% Calm Calm -- 30.20 in1022.7 mb 0.00 in0.0 mm 0.00 in0.0 mm 0.23 in5.8 mm
09:44 AM 49.3°F9.6°C 49.0°F9.4°C 99% Calm Calm -- 30.20 in1022.7 mb 0.00 in0.0 mm 0.00 in0.0 mm 0.23 in5.8 mm
09:39 AM 49.0°F9.4°C 48.7°F9.3°C 99% Calm Calm -- 30.21 in1023.0 mb 0.00 in0.0 mm 0.00 in0.0 mm 0.23 in5.8 mm
09:34 AM 48.8°F9.3°C 48.5°F9.2°C 99% Calm Calm -- 30.20 in1022.7 mb 0.00 in0.0 mm 0.00 in0.0 mm 0.23 in5.8 mm
09:29 AM 48.7°F9.3°C 48.4°F9.1°C 99% Calm Calm -- 30.21 in1023.0 mb 0.00 in0.0 mm 0.00 in0.0 mm 0.23 in5.8 mm
09:24 AM 48.5°F9.2°C 48.2°F9.0°C 99% Calm Calm -- 30.21 in1023.0 mb 0.00 in0.0 mm 0.00 in0.0 mm 0.23 in5.8 mm
09:19 AM 48.3°F9.1°C 48.0°F8.9°C 99% Calm Calm -- 30.21 in1023.0 mb 0.00 in0.0 mm 0.00 in0.0 mm 0.23 in5.8 mm
09:14 AM 48.2°F9.0°C 47.9°F8.8°C 99% Calm Calm -- 30.20 in1022.7 mb 0.00 in0.0 mm 0.00 in0.0 mm 0.23 in5.8 mm
09:09 AM 48.1°F8.9°C 47.8°F8.8°C 99% Calm Calm -- 30.20 in1022.7 mb 0.00 in0.0 mm 0.00 in0.0 mm 0.23 in5.8 mm
09:04 AM 48.0°F8.9°C 47.7°F8.7°C 99% Calm Calm -- 30.20 in1022.7 mb 0.00 in0.0 mm 0.00 in0.0 mm 0.23 in5.8 mm
08:59 AM 47.8°F8.8°C 47.5°F8.6°C 99% Calm Calm -- 30.19 in1022.4 mb 0.00 in0.0 mm 0.00 in0.0 mm 0.23 in5.8 mm
08:54 AM 47.4°F8.6°C 47.1°F8.4°C 99% Calm Calm -- 30.19 in1022.4 mb 0.00 in0.0 mm 0.00 in0.0 mm 0.23 in5.8 mm
08:49 AM 47.2°F8.4°C 46.7°F8.2°C 98% Calm Calm -- 30.19 in1022.4 mb 0.00 in0.0 mm 0.00 in0.0 mm 0.23 in5.8 mm
08:44 AM 47.2°F8.4°C 46.9°F8.3°C 99% Calm Calm -- 30.19 in1022.4 mb 0.00 in0.0 mm 0.00 in0.0 mm 0.23 in5.8 mm
08:39 AM 47.2°F8.4°C 46.9°F8.3°C 99% Calm Calm -- 30.20 in1022.7 mb 0.00 in0.0 mm 0.00 in0.0 mm 0.23 in5.8 mm
08:34 AM 47.1°F8.4°C 46.6°F8.1°C 98% Calm Calm -- 30.20 in1022.7 mb 0.00 in0.0 mm 0.00 in0.0 mm 0.23 in5.8 mm
08:29 AM 47.1°F8.4°C 46.6°F8.1°C 98% Calm Calm -- 30.20 in1022.7 mb 0.00 in0.0 mm 0.00 in0.0 mm 0.23 in5.8 mm
08:24 AM 47.3°F8.5°C 47.0°F8.3°C 99% Calm Calm -- 30.20 in1022.7 mb 0.00 in0.0 mm 0.00 in0.0 mm 0.23 in5.8 mm
08:19 AM 47.1°F8.4°C 46.6°F8.1°C 98% Calm Calm -- 30.20 in1022.7 mb 0.00 in0.0 mm 0.00 in0.0 mm 0.23 in5.8 mm
08:14 AM 46.9°F8.3°C 46.6°F8.1°C 99% Calm Calm -- 30.20 in1022.7 mb 0.00 in0.0 mm 0.00 in0.0 mm 0.23 in5.8 mm
08:09 AM 46.7°F8.2°C 46.4°F8.0°C 99% Calm Calm -- 30.19 in1022.4 mb 0.00 in0.0 mm 0.00 in0.0 mm 0.23 in5.8 mm
08:04 AM 46.4°F8.0°C 45.9°F7.7°C 98% Calm Calm -- 30.18 in1022.0 mb 0.00 in0.0 mm 0.00 in0.0 mm 0.23 in5.8 mm
07:59 AM 46.0°F7.8°C 45.5°F7.5°C 98% Calm Calm -- 30.18 in1022.0 mb 0.00 in0.0 mm 0.00 in0.0 mm 0.23 in5.8 mm
07:54 AM 45.8°F7.7°C 45.3°F7.4°C 98% Calm Calm -- 30.19 in1022.4 mb 0.00 in0.0 mm 0.00 in0.0 mm 0.23 in5.8 mm
07:49 AM 45.7°F7.6°C 45.2°F7.3°C 98% Calm Calm -- 30.19 in1022.4 mb 0.00 in0.0 mm 0.00 in0.0 mm 0.23 in5.8 mm
07:44 AM 45.7°F7.6°C 45.2°F7.3°C 98% Calm Calm -- 30.19 in1022.4 mb 0.00 in0.0 mm 0.00 in0.0 mm 0.23 in5.8 mm
07:39 AM 45.7°F7.6°C 45.2°F7.3°C 98% Calm Calm -- 30.19 in1022.4 mb 0.00 in0.0 mm 0.00 in0.0 mm 0.23 in5.8 mm
07:34 AM 45.7°F7.6°C 45.2°F7.3°C 98% Calm Calm -- 30.18 in1022.0 mb 0.00 in0.0 mm 0.00 in0.0 mm 0.23 in5.8 mm
07:29 AM 45.9°F7.7°C 45.4°F7.4°C 98% Calm Calm -- 30.19 in1022.4 mb 0.00 in0.0 mm 0.00 in0.0 mm 0.23 in5.8 mm
07:24 AM 46.2°F7.9°C 45.9°F7.7°C 99% 1.0 mph SW1.6 kmh SW 1.0 mph1.6 kmh 30.19 in1022.4 mb 0.00 in0.0 mm 0.00 in0.0 mm 0.23 in5.8 mm
07:19 AM 46.7°F8.2°C 46.4°F8.0°C 99% Calm Calm -- 30.18 in1022.0 mb 0.00 in0.0 mm 0.00 in0.0 mm 0.23 in5.8 mm
07:14 AM 47.3°F8.5°C 47.0°F8.3°C 99% Calm Calm 7.0 mph11.3 kmh 30.16 in1021.3 mb 0.00 in0.0 mm 0.00 in0.0 mm 0.23 in5.8 mm
07:09 AM 47.0°F8.3°C 46.7°F8.2°C 99% Calm Calm -- 30.13 in1020.3 mb 0.04 in1.0 mm 0.00 in0.0 mm 0.23 in5.8 mm
07:04 AM 46.9°F8.3°C 46.6°F8.1°C 99% Calm Calm 6.0 mph9.7 kmh 30.14 in1020.7 mb 0.06 in1.5 mm 0.00 in0.0 mm 0.23 in5.8 mm
06:59 AM 45.1°F7.3°C 44.8°F7.1°C 99% 2.0 mph ESE3.2 kmh ESE 10.0 mph16.1 kmh 30.10 in1019.3 mb 0.11 in2.8 mm 0.00 in0.0 mm 0.23 in5.8 mm
06:54 AM 44.1°F6.7°C 43.6°F6.4°C 98% 2.0 mph ENE3.2 kmh ENE 10.0 mph16.1 kmh 30.10 in1019.3 mb 0.12 in3.0 mm 0.36 in9.1 mm 0.22 in5.6 mm
06:49 AM 43.4°F6.3°C 42.9°F6.1°C 98% 2.0 mph ENE3.2 kmh ENE 10.0 mph16.1 kmh 30.14 in1020.7 mb 0.09 in2.3 mm 0.00 in0.0 mm 0.21 in5.3 mm
06:44 AM 43.3°F6.3°C 42.8°F6.0°C 98% 2.0 mph E3.2 kmh E 10.0 mph16.1 kmh 30.16 in1021.3 mb 0.19 in4.8 mm 0.72 in18.3 mm 0.21 in5.3 mm
06:39 AM 43.6°F6.4°C 43.1°F6.2°C 98% 3.0 mph E4.8 kmh E 9.0 mph14.5 kmh 30.17 in1021.7 mb 0.13 in3.3 mm 0.12 in3.0 mm 0.19 in4.8 mm
06:34 AM 43.8°F6.6°C 43.5°F6.4°C 99% 3.0 mph SE4.8 kmh SE 3.0 mph4.8 kmh 30.20 in1022.7 mb 0.12 in3.0 mm 0.00 in0.0 mm 0.18 in4.6 mm
06:29 AM 43.9°F6.6°C 43.6°F6.4°C 99% Calm Calm -- 30.21 in1023.0 mb 0.17 in4.3 mm 0.00 in0.0 mm 0.17 in4.3 mm
06:24 AM 43.9°F6.6°C 43.6°F6.4°C 99% Calm Calm -- 30.22 in1023.4 mb 0.17 in4.3 mm 0.72 in18.3 mm 0.15 in3.8 mm
06:19 AM 43.8°F6.6°C 43.5°F6.4°C 99% Calm Calm -- 30.22 in1023.4 mb 0.11 in2.8 mm 0.00 in0.0 mm 0.14 in3.6 mm
06:14 AM 43.7°F6.5°C 43.4°F6.3°C 99% Calm Calm -- 30.21 in1023.0 mb 0.17 in4.3 mm 0.48 in12.2 mm 0.13 in3.3 mm
06:09 AM 43.7°F6.5°C 43.4°F6.3°C 99% Calm Calm -- 30.22 in1023.4 mb 0.13 in3.3 mm 0.00 in0.0 mm 0.11 in2.8 mm
06:04 AM 43.6°F6.4°C 43.1°F6.2°C 98% Calm Calm -- 30.22 in1023.4 mb 0.24 in6.1 mm 0.04 in1.0 mm 0.10 in2.5 mm
05:59 AM 43.5°F6.4°C 43.0°F6.1°C 98% Calm Calm -- 30.22 in1023.4 mb 0.20 in5.1 mm 0.96 in24.4 mm 0.09 in2.3 mm
05:54 AM 43.4°F6.3°C 42.9°F6.1°C 98% Calm Calm -- 30.22 in1023.4 mb 0.12 in3.0 mm 0.00 in0.0 mm 0.07 in1.8 mm
05:49 AM 43.4°F6.3°C 42.9°F6.1°C 98% Calm Calm -- 30.22 in1023.4 mb 0.14 in3.6 mm 1.20 in30.5 mm 0.06 in1.5 mm
05:44 AM 43.4°F6.3°C 42.9°F6.1°C 98% Calm Calm -- 30.20 in1022.7 mb 0.04 in1.0 mm 0.48 in12.2 mm 0.05 in1.3 mm
05:39 AM 43.4°F6.3°C 42.9°F6.1°C 98% Calm Calm -- 30.19 in1022.4 mb 0.00 in0.0 mm 0.00 in0.0 mm 0.05 in1.3 mm
05:34 AM 43.4°F6.3°C 42.9°F6.1°C 98% Calm Calm -- 30.19 in1022.4 mb 0.00 in0.0 mm 0.00 in0.0 mm 0.05 in1.3 mm
05:29 AM 43.4°F6.3°C 42.9°F6.1°C 98% Calm Calm -- 30.19 in1022.4 mb 0.00 in0.0 mm 0.00 in0.0 mm 0.04 in1.0 mm
05:24 AM 43.4°F6.3°C 42.9°F6.1°C 98% Calm Calm -- 30.18 in1022.0 mb 0.00 in0.0 mm 0.00 in0.0 mm 0.04 in1.0 mm
05:19 AM 43.3°F6.3°C 42.8°F6.0°C 98% Calm Calm -- 30.18 in1022.0 mb 0.04 in1.0 mm 0.00 in0.0 mm 0.04 in1.0 mm
05:14 AM 43.3°F6.3°C 42.8°F6.0°C 98% Calm Calm -- 30.19 in1022.4 mb 0.06 in1.5 mm 0.00 in0.0 mm 0.04 in1.0 mm
05:09 AM 43.3°F6.3°C 43.0°F6.1°C 99% Calm Calm -- 30.19 in1022.4 mb 0.07 in1.8 mm 0.84 in21.3 mm 0.04 in1.0 mm
05:04 AM 43.2°F6.2°C 42.9°F6.1°C 99% Calm Calm -- 30.20 in1022.7 mb 0.00 in0.0 mm 0.00 in0.0 mm 0.03 in0.8 mm
04:59 AM 43.2°F6.2°C 42.9°F6.1°C 99% Calm Calm -- 30.20 in1022.7 mb 0.00 in0.0 mm 0.00 in0.0 mm 0.03 in0.8 mm
04:54 AM 43.1°F6.2°C 42.8°F6.0°C 99% Calm Calm 1.0 mph1.6 kmh 30.19 in1022.4 mb 0.00 in0.0 mm 0.00 in0.0 mm 0.02 in0.5 mm
04:49 AM 43.0°F6.1°C 42.7°F5.9°C 99% Calm Calm -- 30.18 in1022.0 mb 0.00 in0.0 mm 0.00 in0.0 mm 0.02 in0.5 mm
04:44 AM 43.0°F6.1°C 42.7°F5.9°C 99% Calm Calm -- 30.19 in1022.4 mb 0.00 in0.0 mm 0.00 in0.0 mm 0.02 in0.5 mm
04:39 AM 43.0°F6.1°C 42.5°F5.8°C 98% Calm Calm -- 30.18 in1022.0 mb 0.00 in0.0 mm 0.00 in0.0 mm 0.02 in0.5 mm
04:34 AM 43.0°F6.1°C 42.5°F5.8°C 98% Calm Calm -- 30.18 in1022.0 mb 0.00 in0.0 mm 0.00 in0.0 mm 0.02 in0.5 mm
04:29 AM 43.0°F6.1°C 42.5°F5.8°C 98% Calm Calm -- 30.18 in1022.0 mb 0.00 in0.0 mm 0.00 in0.0 mm 0.02 in0.5 mm
04:24 AM 43.0°F6.1°C 42.5°F5.8°C 98% Calm Calm -- 30.18 in1022.0 mb 0.00 in0.0 mm 0.00 in0.0 mm 0.02 in0.5 mm
04:19 AM 42.9°F6.1°C 42.4°F5.8°C 98% Calm Calm -- 30.18 in1022.0 mb 0.00 in0.0 mm 0.00 in0.0 mm 0.02 in0.5 mm
04:14 AM 42.9°F6.1°C 42.4°F5.8°C 98% Calm Calm -- 30.18 in1022.0 mb 0.00 in0.0 mm 0.00 in0.0 mm 0.02 in0.5 mm
04:09 AM 42.8°F6.0°C 42.3°F5.7°C 98% Calm Calm -- 30.18 in1022.0 mb 0.00 in0.0 mm 0.00 in0.0 mm 0.02 in0.5 mm
04:04 AM 42.8°F6.0°C 42.3°F5.7°C 98% Calm Calm -- 30.18 in1022.0 mb 0.00 in0.0 mm 0.00 in0.0 mm 0.01 in0.3 mm
03:59 AM 42.8°F6.0°C 42.3°F5.7°C 98% Calm Calm -- 30.19 in1022.4 mb 0.00 in0.0 mm 0.00 in0.0 mm 0.01 in0.3 mm
03:54 AM 42.8°F6.0°C 42.3°F5.7°C 98% Calm Calm -- 30.19 in1022.4 mb 0.00 in0.0 mm 0.00 in0.0 mm 0.01 in0.3 mm
03:49 AM 42.9°F6.1°C 42.4°F5.8°C 98% Calm Calm -- 30.20 in1022.7 mb 0.00 in0.0 mm 0.00 in0.0 mm 0.01 in0.3 mm
03:44 AM 42.8°F6.0°C 42.3°F5.7°C 98% Calm Calm -- 30.20 in1022.7 mb 0.00 in0.0 mm 0.00 in0.0 mm 0.01 in0.3 mm
03:39 AM 42.8°F6.0°C 42.3°F5.7°C 98% Calm Calm -- 30.20 in1022.7 mb 0.00 in0.0 mm 0.00 in0.0 mm 0.01 in0.3 mm
03:34 AM 42.8°F6.0°C 42.3°F5.7°C 98% Calm Calm -- 30.21 in1023.0 mb 0.00 in0.0 mm 0.00 in0.0 mm 0.01 in0.3 mm
03:29 AM 42.8°F6.0°C 42.3°F5.7°C 98% Calm Calm -- 30.21 in1023.0 mb 0.00 in0.0 mm 0.00 in0.0 mm 0.01 in0.3 mm
03:24 AM 42.7°F5.9°C 42.2°F5.7°C 98% Calm Calm -- 30.21 in1023.0 mb 0.00 in0.0 mm 0.00 in0.0 mm 0.01 in0.3 mm
03:19 AM 42.5°F5.8°C 42.0°F5.6°C 98% Calm Calm -- 30.21 in1023.0 mb 0.00 in0.0 mm 0.00 in0.0 mm 0.01 in0.3 mm
03:14 AM 42.3°F5.7°C 41.8°F5.4°C 98% Calm Calm -- 30.22 in1023.4 mb 0.00 in0.0 mm 0.00 in0.0 mm 0.01 in0.3 mm
03:09 AM 42.2°F5.7°C 41.7°F5.4°C 98% Calm Calm -- 30.23 in1023.7 mb 0.00 in0.0 mm 0.00 in0.0 mm 0.01 in0.3 mm
03:04 AM 42.1°F5.6°C 41.6°F5.3°C 98% Calm Calm -- 30.21 in1023.0 mb 0.00 in0.0 mm 0.00 in0.0 mm 0.01 in0.3 mm
02:59 AM 42.0°F5.6°C 41.5°F5.3°C 98% Calm Calm -- 30.22 in1023.4 mb 0.00 in0.0 mm 0.00 in0.0 mm 0.01 in0.3 mm
02:54 AM 41.9°F5.5°C 41.4°F5.2°C 98% Calm Calm -- 30.23 in1023.7 mb 0.00 in0.0 mm 0.00 in0.0 mm 0.01 in0.3 mm
02:49 AM 41.8°F5.4°C 41.3°F5.2°C 98% Calm Calm -- 30.23 in1023.7 mb 0.00 in0.0 mm 0.00 in0.0 mm 0.01 in0.3 mm
02:44 AM 41.7°F5.4°C 41.2°F5.1°C 98% Calm Calm 3.0 mph4.8 kmh 30.23 in1023.7 mb 0.00 in0.0 mm 0.00 in0.0 mm 0.01 in0.3 mm
02:39 AM 41.7°F5.4°C 41.2°F5.1°C 98% Calm Calm -- 30.25 in1024.4 mb 0.00 in0.0 mm 0.00 in0.0 mm 0.01 in0.3 mm
02:34 AM 41.8°F5.4°C 41.3°F5.2°C 98% Calm Calm -- 30.24 in1024.0 mb 0.00 in0.0 mm 0.00 in0.0 mm 0.01 in0.3 mm
02:29 AM 41.7°F5.4°C 41.2°F5.1°C 98% Calm Calm 1.0 mph1.6 kmh 30.27 in1025.1 mb 0.00 in0.0 mm 0.00 in0.0 mm 0.01 in0.3 mm
02:24 AM 41.7°F5.4°C 41.2°F5.1°C 98% Calm Calm -- 30.25 in1024.4 mb 0.00 in0.0 mm 0.00 in0.0 mm 0.01 in0.3 mm
02:19 AM 41.6°F5.3°C 41.1°F5.1°C 98% Calm Calm -- 30.25 in1024.4 mb 0.00 in0.0 mm 0.00 in0.0 mm 0.01 in0.3 mm
02:14 AM 41.6°F5.3°C 41.1°F5.1°C 98% Calm Calm -- 30.24 in1024.0 mb 0.00 in0.0 mm 0.00 in0.0 mm 0.01 in0.3 mm
02:09 AM 41.6°F5.3°C 41.1°F5.1°C 98% Calm Calm -- 30.22 in1023.4 mb 0.00 in0.0 mm 0.00 in0.0 mm 0.01 in0.3 mm
02:04 AM 41.6°F5.3°C 41.1°F5.1°C 98% Calm Calm -- 30.23 in1023.7 mb 0.00 in0.0 mm 0.00 in0.0 mm 0.01 in0.3 mm
01:59 AM 41.6°F5.3°C 41.1°F5.1°C 98% Calm Calm -- 30.23 in1023.7 mb 0.00 in0.0 mm 0.00 in0.0 mm 0.01 in0.3 mm
01:54 AM 41.6°F5.3°C 41.1°F5.1°C 98% Calm Calm -- 30.23 in1023.7 mb 0.00 in0.0 mm 0.00 in0.0 mm 0.01 in0.3 mm
01:49 AM 41.7°F5.4°C 41.2°F5.1°C 98% Calm Calm -- 30.25 in1024.4 mb 0.00 in0.0 mm 0.00 in0.0 mm 0.01 in0.3 mm
01:44 AM 41.7°F5.4°C 41.2°F5.1°C 98% Calm Calm -- 30.25 in1024.4 mb 0.00 in0.0 mm 0.00 in0.0 mm 0.05 in1.3 mm
01:39 AM 41.6°F5.3°C 41.1°F5.1°C 98% Calm Calm -- 30.25 in1024.4 mb 0.00 in0.0 mm 0.00 in0.0 mm 0.05 in1.3 mm
01:34 AM 41.6°F5.3°C 41.1°F5.1°C 98% Calm Calm -- 30.25 in1024.4 mb 0.00 in0.0 mm 0.00 in0.0 mm 0.05 in1.3 mm
01:29 AM 41.6°F5.3°C 41.1°F5.1°C 98% Calm Calm -- 30.25 in1024.4 mb 0.00 in0.0 mm 0.00 in0.0 mm 0.05 in1.3 mm
01:24 AM 41.6°F5.3°C 41.1°F5.1°C 98% Calm Calm -- 30.25 in1024.4 mb 0.00 in0.0 mm 0.00 in0.0 mm 0.05 in1.3 mm
01:19 AM 41.5°F5.3°C 41.0°F5.0°C 98% Calm Calm -- 30.24 in1024.0 mb 0.00 in0.0 mm 0.00 in0.0 mm 0.05 in1.3 mm
01:14 AM 41.5°F5.3°C 41.0°F5.0°C 98% Calm Calm -- 30.26 in1024.7 mb 0.00 in0.0 mm 0.00 in0.0 mm 0.05 in1.3 mm
01:09 AM 41.5°F5.3°C 41.0°F5.0°C 98% Calm Calm -- 30.25 in1024.4 mb 0.00 in0.0 mm 0.00 in0.0 mm 0.05 in1.3 mm
01:04 AM 41.5°F5.3°C 41.0°F5.0°C 98% Calm Calm -- 30.25 in1024.4 mb 0.00 in0.0 mm 0.00 in0.0 mm 0.05 in1.3 mm
12:59 AM 41.5°F5.3°C 41.0°F5.0°C 98% Calm Calm -- 30.24 in1024.0 mb 0.00 in0.0 mm 0.00 in0.0 mm 0.05 in1.3 mm
12:54 AM 41.6°F5.3°C 41.1°F5.1°C 98% Calm Calm -- 30.25 in1024.4 mb 0.00 in0.0 mm 0.00 in0.0 mm 0.05 in1.3 mm
12:49 AM 41.6°F5.3°C 41.1°F5.1°C 98% Calm Calm -- 30.25 in1024.4 mb 0.00 in0.0 mm 0.00 in0.0 mm 0.05 in1.3 mm
12:44 AM 41.6°F5.3°C 41.1°F5.1°C 98% Calm Calm -- 30.24 in1024.0 mb 0.00 in0.0 mm 0.00 in0.0 mm 0.05 in1.3 mm
12:39 AM 41.7°F5.4°C 41.2°F5.1°C 98% Calm Calm -- 30.25 in1024.4 mb 0.00 in0.0 mm 0.00 in0.0 mm 0.05 in1.3 mm
12:34 AM 41.7°F5.4°C 41.2°F5.1°C 98% Calm Calm -- 30.24 in1024.0 mb 0.00 in0.0 mm 0.00 in0.0 mm 0.05 in1.3 mm
12:29 AM 41.7°F5.4°C 41.2°F5.1°C 98% Calm Calm -- 30.24 in1024.0 mb 0.00 in0.0 mm 0.00 in0.0 mm 0.05 in1.3 mm
12:24 AM 41.8°F5.4°C 41.3°F5.2°C 98% Calm Calm -- 30.23 in1023.7 mb 0.00 in0.0 mm 0.00 in0.0 mm 0.05 in1.3 mm
12:19 AM 41.9°F5.5°C 41.4°F5.2°C 98% Calm Calm -- 30.23 in1023.7 mb 0.00 in0.0 mm 0.00 in0.0 mm 0.05 in1.3 mm
12:14 AM 42.3°F5.7°C 41.8°F5.4°C 98% Calm Calm -- 30.23 in1023.7 mb 0.00 in0.0 mm 0.00 in0.0 mm 0.05 in1.3 mm
12:09 AM 43.0°F6.1°C 42.5°F5.8°C 98% Calm Calm 10.0 mph16.1 kmh 30.25 in1024.4 mb 0.00 in0.0 mm 0.00 in0.0 mm 0.05 in1.3 mm
12:04 AM 43.8°F6.6°C 43.3°F6.3°C 98% 1.0 mph NW1.6 kmh NW 10.0 mph16.1 kmh 30.25 in1024.4 mb 0.05 in1.3 mm 0.75 in19.1 mm 0.05 in1.3 mm